Weather at Rakovnik Airfield

Public forecast

Using degrees Celsius for public forecast. Weather courtesy of forecast.io.

Closest aviation weather report (METAR) to Rakovnik Airfield

Closest report is Václav Havel Airport Prague, 22.0 nm (40.7 km) E.

2024/05/25 18:00 (retrieved 22 minutes ago)

LKPR 251800Z 33004KT 290V350 CAVOK 16/14 Q1017 NOSIG

Closest aviation forecast (TAF) to Rakovnik Airfield

Closest forecast is Václav Havel Airport Prague, 22.0 nm (40.7 km) E.

2024/05/25 18:21 (retrieved 30 seconds ago)

TAF LKPR 251700Z 2518/2700 03006KT 9999 SCT036 TEMPO 2518/2519 6000 SHRA SCT020CB BECMG 2519/2521 VRB02KT 1200 BR SCT005 TEMPO 2600/2606 0600 FG BKN003 BECMG 2607/2609 17006KT 9999 SCT030 PROB30 TEMPO 2612/2621 06008KT 7000 SHRA SCT020TCU BECMG 2621/2623 32004KT 1400 BR BKN004